Pierceville, Kansas
Current Conditions -  °F | °C
As of 7:54 AM on Monday 26 Jan 2015 (Local Time) from KGCK Reporting Station
Clear Clear  
Wind Chill: 27°   Ceiling: Unl
Heat Index: 36°   Visibility: 10mi
Dew Point: 28°   Wind: 14mph
Humidity: 73%   Direction: 290°WNW
Pressure: 30.12"   Gusts: NA
Location:  37.88°N, 100.68°W
Report Text: KGCK 261354Z 29012KT 10SM CLR 02/M02 A3012 RMK AO2 SLP210 T00221022
Loading
Personal Weather Stations






























Interactive Weather Map New forecast layout! Learn more

10-Day Weather Forecast

Advertisements
Track Severe Weather on mobile